Time;durP1;ratioP1;P1;durP2;ratioP2;P2;SDS_P1;SDS_P2;PMS_P1;PMS_P2;Temp;Humidity;BMP_temperature;BMP_pressure;BME280_temperature;BME280_humidity;BME280_pressure;Samples;Min_cycle;Max_cycle;Signal;HPM_P1;HPM_P2
2023/03/04 00:01:22;;;;;;;19.20;14.87;;;3.40;99.90;;;;;;5059886;28;20490;-49
2023/03/04 00:03:49;;;;;;;18.90;14.80;;;3.50;99.90;;;;;;5059243;28;20447;-51
2023/03/04 00:06:16;;;;;;;23.07;15.53;;;3.60;99.90;;;;;;5058727;28;20519;-51
2023/03/04 00:08:43;;;;;;;24.33;16.60;;;3.70;99.90;;;;;;5062533;28;20503;-50
2023/03/04 00:11:10;;;;;;;25.13;16.13;;;3.80;99.90;;;;;;5060588;28;20941;-54
2023/03/04 00:13:38;;;;;;;20.80;16.53;;;3.70;99.90;;;;;;5060864;28;20482;-50
2023/03/04 00:16:06;;;;;;;21.90;15.97;;;3.60;99.90;;;;;;5061068;28;20524;-52
2023/03/04 00:18:33;;;;;;;22.57;15.33;;;3.70;99.90;;;;;;5058685;28;20520;-51
2023/03/04 00:21:00;;;;;;;23.10;16.30;;;3.70;99.90;;;;;;5056406;28;20518;-51
2023/03/04 00:23:27;;;;;;;20.60;14.30;;;3.50;99.90;;;;;;5060443;28;20453;-52
2023/03/04 00:25:53;;;;;;;23.70;15.73;;;3.40;99.90;;;;;;5061067;28;20894;-52
2023/03/04 00:28:20;;;;;;;23.13;15.73;;;3.40;99.90;;;;;;5056980;28;20947;-51
2023/03/04 00:30:49;;;;;;;24.67;16.87;;;3.30;99.90;;;;;;5054124;28;20899;-51
2023/03/04 00:33:16;;;;;;;24.00;15.70;;;3.30;99.90;;;;;;5057442;28;20512;-52
2023/03/04 00:35:43;;;;;;;20.80;16.60;;;3.30;99.90;;;;;;5057438;28;20468;-51
2023/03/04 00:38:10;;;;;;;24.37;15.00;;;3.40;99.90;;;;;;5054072;28;20473;-51
2023/03/04 00:40:36;;;;;;;22.90;15.60;;;3.40;99.90;;;;;;5057324;28;20471;-51
2023/03/04 00:43:03;;;;;;;23.43;16.27;;;3.50;99.90;;;;;;5057688;28;20544;-53
2023/03/04 00:45:30;;;;;;;21.97;16.73;;;3.60;99.90;;;;;;5053388;28;20536;-52
2023/03/04 00:47:59;;;;;;;24.63;18.07;;;3.60;99.90;;;;;;5057249;28;20517;-51
2023/03/04 00:50:25;;;;;;;26.70;18.77;;;3.60;99.90;;;;;;5056282;28;20874;-51
2023/03/04 00:52:52;;;;;;;30.43;19.07;;;3.70;99.90;;;;;;5055209;28;20518;-51
2023/03/04 00:55:19;;;;;;;20.00;16.77;;;3.70;99.90;;;;;;5052398;28;20534;-51
2023/03/04 00:57:46;;;;;;;21.27;16.90;;;3.70;99.90;;;;;;5055254;28;20451;-53
2023/03/04 01:00:14;;;;;;;24.63;16.23;;;3.70;99.90;;;;;;5055103;28;20885;-54
2023/03/04 01:02:41;;;;;;;21.87;14.97;;;3.70;99.90;;;;;;5055023;28;20482;-53
2023/03/04 01:05:10;;;;;;;21.70;16.27;;;3.80;99.90;;;;;;5052595;28;20567;-51
2023/03/04 01:07:37;;;;;;;21.47;15.40;;;3.70;99.90;;;;;;5056142;28;20440;-52
2023/03/04 01:10:05;;;;;;;25.60;16.07;;;3.50;99.90;;;;;;5056614;28;20531;-51
2023/03/04 01:12:32;;;;;;;20.57;14.77;;;3.60;99.90;;;;;;5054053;28;20515;-51
2023/03/04 01:14:59;;;;;;;20.30;14.50;;;3.70;99.90;;;;;;5053936;28;20953;-51
2023/03/04 01:17:26;;;;;;;20.13;15.47;;;3.70;99.90;;;;;;5056956;28;20935;-51
2023/03/04 01:19:53;;;;;;;28.73;16.07;;;3.80;99.90;;;;;;5053814;28;20479;-50
2023/03/04 01:22:21;;;;;;;29.27;15.43;;;3.80;99.90;;;;;;5056279;28;20921;-52
2023/03/04 01:24:48;;;;;;;22.83;15.17;;;3.70;99.90;;;;;;5056332;28;20507;-51
2023/03/04 01:27:15;;;;;;;21.60;15.47;;;3.60;99.90;;;;;;5055906;28;20870;-50
2023/03/04 01:29:42;;;;;;;22.30;15.90;;;3.40;99.90;;;;;;5053253;28;20490;-53
2023/03/04 01:32:09;;;;;;;18.37;13.63;;;3.40;99.90;;;;;;5056284;28;20534;-51
2023/03/04 01:34:36;;;;;;;24.20;15.67;;;3.30;99.90;;;;;;5056273;28;20465;-51
2023/03/04 01:37:03;;;;;;;25.33;15.67;;;3.40;99.90;;;;;;5056740;28;20536;-51
2023/03/04 01:39:31;;;;;;;20.10;14.70;;;3.50;99.90;;;;;;5054800;28;20511;-51
2023/03/04 01:41:58;;;;;;;22.93;15.50;;;3.40;99.90;;;;;;5056370;28;20460;-50
2023/03/04 01:44:25;;;;;;;18.80;14.60;;;3.40;99.90;;;;;;5056083;28;20520;-53
2023/03/04 01:46:54;;;;;;;25.97;14.10;;;3.50;99.90;;;;;;5050674;28;20474;-50
2023/03/04 01:49:22;;;;;;;18.83;13.70;;;3.60;99.90;;;;;;5055713;28;20472;-52
2023/03/04 01:51:51;;;;;;;15.70;12.30;;;3.80;99.90;;;;;;5056048;28;20554;-53
2023/03/04 01:54:18;;;;;;;21.40;14.00;;;3.80;99.90;;;;;;5056402;28;20441;-51
2023/03/04 01:56:48;;;;;;;24.13;15.03;;;3.70;99.90;;;;;;5056457;28;20467;-51
2023/03/04 01:59:17;;;;;;;21.20;14.20;;;3.60;99.90;;;;;;5055851;28;20887;-51
2023/03/04 02:01:46;;;;;;;18.20;13.60;;;3.50;99.90;;;;;;5054504;28;20730;-51
2023/03/04 02:04:13;;;;;;;19.23;13.50;;;3.60;99.90;;;;;;5049764;28;21037;-51
2023/03/04 02:06:41;;;;;;;21.60;15.50;;;3.60;99.90;;;;;;5036157;28;20484;-51
2023/03/04 02:09:09;;;;;;;19.03;13.87;;;3.60;99.90;;;;;;5049364;28;20480;-51
2023/03/04 02:11:38;;;;;;;24.07;15.50;;;3.60;99.90;;;;;;5079909;22;20626;-79
2023/03/04 02:14:07;;;;;;;23.70;17.20;;;3.70;99.90;;;;;;5051647;28;20526;-79
2023/03/04 02:16:34;;;;;;;30.37;16.27;;;3.50;99.90;;;;;;5050276;28;21019;-79
2023/03/04 02:19:02;;;;;;;21.50;14.97;;;3.10;99.90;;;;;;5050451;28;20464;-79
2023/03/04 02:21:30;;;;;;;26.10;17.17;;;2.90;99.90;;;;;;5050677;28;20510;-79
2023/03/04 02:24:14;;;;;;;23.03;16.50;;;2.80;99.90;;;;;;5050319;28;20498;-79
2023/03/04 02:26:42;;;;;;;18.53;14.57;;;2.70;99.90;;;;;;5051243;28;20474;-79
2023/03/04 02:29:11;;;;;;;21.17;14.70;;;2.70;99.90;;;;;;5050646;28;20495;-79
2023/03/04 02:31:40;;;;;;;24.43;16.47;;;3.00;99.90;;;;;;5049802;28;20503;-79
2023/03/04 02:34:12;;;;;;;33.40;16.17;;;3.00;99.90;;;;;;5050016;28;20529;-79
2023/03/04 02:36:40;;;;;;;29.87;16.83;;;2.90;99.90;;;;;;5050760;28;20519;-79
2023/03/04 02:39:12;;;;;;;22.80;16.60;;;2.90;99.90;;;;;;5049870;28;20473;-79
2023/03/04 02:41:39;;;;;;;22.03;15.40;;;2.80;99.90;;;;;;5050389;28;20479;-79
2023/03/04 02:44:17;;;;;;;21.90;16.97;;;2.70;99.90;;;;;;5050068;28;20529;-79
2023/03/04 02:46:45;;;;;;;28.50;17.40;;;2.70;99.90;;;;;;5049957;28;20516;-79
2023/03/04 02:49:12;;;;;;;20.67;15.03;;;2.70;99.90;;;;;;5049540;28;20554;-80
2023/03/04 02:51:39;;;;;;;24.30;15.80;;;2.90;99.90;;;;;;5049172;28;20531;-79
2023/03/04 02:54:14;;;;;;;29.13;16.07;;;3.10;99.90;;;;;;5050021;28;20479;-79
2023/03/04 02:56:45;;;;;;;19.73;14.80;;;3.10;99.90;;;;;;5050582;28;21069;-79
2023/03/04 02:59:13;;;;;;;20.63;14.20;;;3.10;99.90;;;;;;5049827;28;20870;-79
2023/03/04 03:01:40;;;;;;;29.77;16.60;;;3.00;99.90;;;;;;5049509;28;20542;-79
2023/03/04 03:04:07;;;;;;;26.27;16.30;;;2.90;99.90;;;;;;5049749;28;20486;-78
2023/03/04 03:06:34;;;;;;;22.13;15.37;;;3.00;99.90;;;;;;5049994;28;20482;-79
2023/03/04 03:09:01;;;;;;;22.80;15.63;;;2.90;99.90;;;;;;5049561;28;20869;-79
2023/03/04 03:11:28;;;;;;;22.03;13.70;;;2.80;99.90;;;;;;5049862;28;20512;-79
2023/03/04 03:13:55;;;;;;;26.80;16.67;;;2.60;99.90;;;;;;5049625;28;21032;-79
2023/03/04 03:16:24;;;;;;;21.67;14.73;;;2.30;99.90;;;;;;5050264;28;20504;-80
2023/03/04 03:18:51;;;;;;;22.47;13.90;;;2.40;99.90;;;;;;5049982;28;20499;-79
2023/03/04 03:21:18;;;;;;;22.93;14.47;;;2.60;99.90;;;;;;5049741;28;20488;-79
2023/03/04 03:23:44;;;;;;;20.17;13.37;;;2.80;99.90;;;;;;5050401;28;20554;-79
2023/03/04 03:26:12;;;;;;;23.80;14.37;;;2.90;99.90;;;;;;5049106;28;20507;-79
2023/03/04 03:28:38;;;;;;;17.83;12.73;;;2.80;99.90;;;;;;5049004;28;20560;-79
2023/03/04 03:31:05;;;;;;;20.90;14.30;;;2.70;99.90;;;;;;5049278;28;20627;-79
2023/03/04 03:33:34;;;;;;;23.07;14.80;;;2.60;99.90;;;;;;5050005;28;20536;-79
2023/03/04 03:36:01;;;;;;;19.80;14.20;;;2.40;99.90;;;;;;5049728;28;20437;-79
2023/03/04 03:38:28;;;;;;;21.00;13.20;;;2.50;99.90;;;;;;5049410;28;20494;-79
2023/03/04 03:40:55;;;;;;;22.43;14.10;;;2.60;99.90;;;;;;5049389;28;20868;-79
2023/03/04 03:43:22;;;;;;;17.27;12.47;;;2.70;99.90;;;;;;5049371;28;21001;-79
2023/03/04 03:45:50;;;;;;;20.03;14.20;;;2.70;99.90;;;;;;5049541;28;20577;-79
2023/03/04 03:48:17;;;;;;;17.47;11.47;;;2.70;99.90;;;;;;5049292;28;20533;-79
2023/03/04 03:50:45;;;;;;;21.20;12.40;;;2.70;99.90;;;;;;5055737;28;20492;-80
2023/03/04 03:53:12;;;;;;;17.83;12.03;;;2.80;99.90;;;;;;5051529;28;20474;-80
2023/03/04 03:55:39;;;;;;;16.43;11.47;;;2.50;99.90;;;;;;5052610;28;20501;-79
2023/03/04 03:58:06;;;;;;;15.77;11.03;;;2.30;99.90;;;;;;5050202;28;20516;-79
2023/03/04 04:00:33;;;;;;;15.10;11.20;;;1.80;99.90;;;;;;5050832;28;20445;-79
2023/03/04 04:03:01;;;;;;;16.43;12.17;;;1.50;99.90;;;;;;5051481;28;20537;-79
2023/03/04 04:05:28;;;;;;;19.47;12.00;;;1.80;99.90;;;;;;5053574;28;20560;-79
2023/03/04 04:07:56;;;;;;;16.30;11.13;;;1.90;99.90;;;;;;5053660;28;20534;-79
2023/03/04 04:10:23;;;;;;;15.80;9.20;;;1.80;99.90;;;;;;5053155;28;20914;-79
2023/03/04 04:12:50;;;;;;;19.33;10.90;;;1.90;99.90;;;;;;5053141;28;20517;-79
2023/03/04 04:15:17;;;;;;;14.93;11.20;;;1.90;99.90;;;;;;5053521;28;20458;-79
2023/03/04 04:17:44;;;;;;;15.30;9.53;;;2.00;99.90;;;;;;5053178;28;20470;-79
2023/03/04 04:20:12;;;;;;;21.27;11.47;;;2.00;99.90;;;;;;5052692;28;21057;-79
2023/03/04 04:22:39;;;;;;;18.40;10.50;;;2.20;99.90;;;;;;5052804;28;20497;-78
2023/03/04 04:25:09;;;;;;;17.83;10.13;;;2.10;99.90;;;;;;5052829;28;20507;-79
2023/03/04 04:27:36;;;;;;;13.20;9.73;;;2.10;99.90;;;;;;5052482;28;20514;-79
2023/03/04 04:30:04;;;;;;;16.67;10.23;;;2.00;99.90;;;;;;5052438;28;20556;-79
2023/03/04 04:32:31;;;;;;;15.77;9.50;;;2.00;99.90;;;;;;5052525;28;21007;-79
2023/03/04 04:34:58;;;;;;;17.23;10.80;;;2.20;99.90;;;;;;5052654;28;20497;-79
2023/03/04 04:37:24;;;;;;;18.40;10.30;;;2.40;99.90;;;;;;5052942;28;20526;-79
2023/03/04 04:39:54;;;;;;;17.53;10.90;;;2.50;99.90;;;;;;5053669;28;20660;-80
2023/03/04 04:42:22;;;;;;;15.47;11.20;;;2.60;99.90;;;;;;5052473;28;20829;-79
2023/03/04 04:44:50;;;;;;;16.30;11.10;;;2.50;99.90;;;;;;5052672;28;20525;-79
2023/03/04 04:47:17;;;;;;;13.87;10.20;;;2.40;99.90;;;;;;5052364;28;20482;-79
2023/03/04 04:49:44;;;;;;;16.57;10.20;;;2.20;99.90;;;;;;5051942;28;20554;-79
2023/03/04 04:52:11;;;;;;;15.70;10.37;;;2.40;99.90;;;;;;5052137;28;20537;-79
2023/03/04 04:54:38;;;;;;;15.60;10.93;;;2.40;99.90;;;;;;5052116;28;20498;-79
2023/03/04 04:57:05;;;;;;;16.67;11.30;;;2.50;99.90;;;;;;5052131;28;21015;-79
2023/03/04 04:59:33;;;;;;;17.90;12.60;;;2.60;99.90;;;;;;5052090;28;20494;-79
2023/03/04 05:02:00;;;;;;;15.80;10.50;;;2.40;99.90;;;;;;5051678;28;20631;-79
2023/03/04 05:04:27;;;;;;;15.30;11.00;;;2.30;99.90;;;;;;5052696;28;20499;-79
2023/03/04 05:06:54;;;;;;;17.70;9.70;;;2.20;99.90;;;;;;5052069;28;20510;-79
2023/03/04 05:09:21;;;;;;;13.43;8.77;;;1.90;99.90;;;;;;5051549;28;20470;-80
2023/03/04 05:11:48;;;;;;;14.10;8.63;;;2.00;99.90;;;;;;5051822;28;20457;-79
2023/03/04 05:14:15;;;;;;;14.87;8.60;;;1.90;99.90;;;;;;5048992;28;21043;-79
2023/03/04 05:16:44;;;;;;;14.70;8.37;;;2.10;99.90;;;;;;5050423;28;20529;-79
2023/03/04 05:19:10;;;;;;;15.33;8.30;;;2.00;99.90;;;;;;5050607;28;20458;-78
2023/03/04 05:21:37;;;;;;;11.73;7.50;;;1.90;99.90;;;;;;5051390;28;20536;-79
2023/03/04 05:24:05;;;;;;;13.80;6.73;;;2.00;99.90;;;;;;5050763;28;21014;-79
2023/03/04 05:26:31;;;;;;;10.70;7.20;;;1.60;99.90;;;;;;5051952;28;20656;-79
2023/03/04 05:28:58;;;;;;;9.97;7.83;;;1.60;99.90;;;;;;5050802;28;20470;-79
2023/03/04 05:31:25;;;;;;;10.50;7.63;;;1.70;99.90;;;;;;5052096;28;20454;-79
2023/03/04 05:33:54;;;;;;;13.73;8.03;;;2.00;99.90;;;;;;5058143;28;20454;-79
2023/03/04 05:36:21;;;;;;;10.17;7.83;;;2.00;99.90;;;;;;5053168;28;21034;-79
2023/03/04 05:38:48;;;;;;;13.97;7.97;;;2.20;99.90;;;;;;5054186;28;20470;-79
2023/03/04 05:41:17;;;;;;;12.30;7.53;;;2.40;99.90;;;;;;5052210;28;20943;-79
2023/03/04 05:43:44;;;;;;;10.87;7.73;;;2.40;99.90;;;;;;5051403;28;20482;-79
2023/03/04 05:46:14;;;;;;;15.63;7.97;;;2.40;99.90;;;;;;5050429;28;20510;-79
2023/03/04 05:48:41;;;;;;;12.53;7.03;;;2.40;99.90;;;;;;5051237;28;20532;-79
2023/03/04 05:51:09;;;;;;;11.87;7.00;;;2.30;99.90;;;;;;5050633;28;20465;-79
2023/03/04 05:53:36;;;;;;;13.13;7.87;;;1.90;99.90;;;;;;5051331;28;20528;-79
2023/03/04 05:56:07;;;;;;;14.60;7.30;;;1.80;99.90;;;;;;5050829;28;20545;-79
2023/03/04 05:58:34;;;;;;;9.90;7.50;;;1.80;99.90;;;;;;5042462;28;20525;-79
2023/03/04 06:01:02;;;;;;;10.27;8.53;;;1.90;99.90;;;;;;5049289;28;20465;-78
2023/03/04 06:03:29;;;;;;;11.30;7.50;;;2.20;99.90;;;;;;5050630;28;20541;-79
2023/03/04 06:05:56;;;;;;;10.83;7.80;;;2.30;99.90;;;;;;5050447;28;20563;-78
2023/03/04 06:08:25;;;;;;;8.33;6.23;;;2.30;99.90;;;;;;5047232;28;20874;-79
2023/03/04 06:10:54;;;;;;;12.07;9.80;;;2.30;99.90;;;;;;5050258;28;20482;-79
2023/03/04 06:13:21;;;;;;;11.20;8.63;;;2.00;99.90;;;;;;5050678;28;20548;-80
2023/03/04 06:15:53;;;;;;;21.30;19.10;;;2.10;99.90;;;;;;5050385;28;20487;-79
2023/03/04 06:18:20;;;;;;;14.50;11.47;;;2.00;99.90;;;;;;5049109;28;21049;-79
2023/03/04 06:20:47;;;;;;;10.83;8.20;;;1.90;99.90;;;;;;5048115;28;20451;-79
2023/03/04 06:23:14;;;;;;;7.90;7.10;;;1.80;99.90;;;;;;5049638;28;20935;-79
2023/03/04 06:25:43;;;;;;;11.13;9.30;;;1.80;99.90;;;;;;5048833;28;21121;-79
2023/03/04 06:28:09;;;;;;;7.90;6.97;;;2.00;99.90;;;;;;5049781;28;20551;-79
2023/03/04 06:30:36;;;;;;;8.67;6.80;;;2.00;99.90;;;;;;5050129;28;20481;-79
2023/03/04 06:33:03;;;;;;;8.60;6.57;;;2.20;99.90;;;;;;5050385;28;20985;-79
2023/03/04 06:35:30;;;;;;;9.50;7.10;;;2.20;99.90;;;;;;5049957;28;20529;-79
2023/03/04 06:37:57;;;;;;;11.13;7.90;;;2.10;99.90;;;;;;5049794;28;21028;-79
2023/03/04 06:40:24;;;;;;;13.00;7.90;;;2.10;99.90;;;;;;5050565;28;20549;-79
2023/03/04 06:42:52;;;;;;;10.07;7.53;;;2.00;99.90;;;;;;5049542;28;20489;-79
2023/03/04 06:45:19;;;;;;;11.57;7.20;;;2.10;99.90;;;;;;5048624;28;20450;-78
2023/03/04 06:47:46;;;;;;;12.93;9.97;;;1.90;99.90;;;;;;5049717;28;20532;-79
2023/03/04 06:50:13;;;;;;;10.43;6.50;;;1.90;99.90;;;;;;5048086;28;21048;-79
2023/03/04 06:52:41;;;;;;;13.00;8.43;;;1.90;99.90;;;;;;5049583;28;20454;-79
2023/03/04 06:55:09;;;;;;;12.17;8.07;;;2.10;99.90;;;;;;5049500;28;20517;-79
2023/03/04 06:57:36;;;;;;;9.63;7.60;;;2.20;99.90;;;;;;5049706;28;20585;-79
2023/03/04 07:00:05;;;;;;;15.87;9.27;;;2.20;99.90;;;;;;5048602;28;20550;-79
2023/03/04 07:02:32;;;;;;;11.07;7.47;;;2.30;99.90;;;;;;5049827;28;20481;-79
2023/03/04 07:04:59;;;;;;;11.90;7.37;;;2.40;99.90;;;;;;5050068;28;20536;-78
2023/03/04 07:07:26;;;;;;;10.50;7.43;;;2.40;99.90;;;;;;5050035;28;20511;-79
2023/03/04 07:09:53;;;;;;;13.80;7.50;;;2.50;99.90;;;;;;5050230;28;20466;-78
2023/03/04 07:12:20;;;;;;;10.00;7.70;;;2.50;99.90;;;;;;5049637;28;20546;-79
2023/03/04 07:14:47;;;;;;;9.27;7.33;;;2.40;99.90;;;;;;5052397;28;20473;-79
2023/03/04 07:17:15;;;;;;;10.87;7.57;;;2.10;99.90;;;;;;5054322;28;20528;-79
2023/03/04 07:19:43;;;;;;;10.70;7.37;;;2.00;99.90;;;;;;5050685;28;20498;-79
2023/03/04 07:22:10;;;;;;;12.00;8.70;;;2.00;99.90;;;;;;5049951;28;20800;-79
2023/03/04 07:24:37;;;;;;;11.57;7.00;;;2.20;99.90;;;;;;5050838;28;20542;-79
2023/03/04 07:27:04;;;;;;;8.83;6.63;;;2.30;99.90;;;;;;5049415;28;20551;-79
2023/03/04 07:29:31;;;;;;;8.30;6.43;;;2.40;99.90;;;;;;5049967;28;20493;-80
2023/03/04 07:31:58;;;;;;;9.20;6.73;;;2.30;99.90;;;;;;5051228;28;20483;-79
2023/03/04 07:34:26;;;;;;;11.43;6.93;;;2.10;99.90;;;;;;5050195;28;20566;-79
2023/03/04 07:36:53;;;;;;;8.77;5.53;;;2.10;99.90;;;;;;5051129;28;20846;-79
2023/03/04 07:39:20;;;;;;;8.87;6.27;;;2.10;99.90;;;;;;5053034;28;20501;-79
2023/03/04 07:41:47;;;;;;;7.90;6.23;;;2.20;99.90;;;;;;5053878;28;20518;-79
2023/03/04 07:44:14;;;;;;;6.30;5.50;;;2.30;99.90;;;;;;5053525;28;20465;-79
2023/03/04 07:46:41;;;;;;;8.70;6.77;;;2.40;99.90;;;;;;5054025;28;20564;-79
2023/03/04 07:49:08;;;;;;;8.43;6.90;;;2.40;99.90;;;;;;5053391;28;20493;-79
2023/03/04 07:51:36;;;;;;;13.03;7.73;;;2.50;99.90;;;;;;5053241;28;20469;-79
2023/03/04 07:54:03;;;;;;;10.10;7.80;;;2.50;99.90;;;;;;5052925;28;20573;-79
2023/03/04 07:56:33;;;;;;;11.83;8.27;;;2.50;99.90;;;;;;5053487;28;20568;-79
2023/03/04 07:59:00;;;;;;;18.13;9.73;;;2.50;99.90;;;;;;5052347;28;20547;-78
2023/03/04 08:01:29;;;;;;;19.80;12.30;;;2.50;99.90;;;;;;5052558;28;20481;-79
2023/03/04 08:03:56;;;;;;;29.40;19.13;;;2.40;99.90;;;;;;5053048;28;20500;-79
2023/03/04 08:06:24;;;;;;;22.80;16.43;;;2.40;99.90;;;;;;5053122;28;20466;-79
2023/03/04 08:08:57;;;;;;;15.40;11.40;;;2.30;99.90;;;;;;5052486;28;20521;-79
2023/03/04 08:11:24;;;;;;;11.17;8.57;;;2.20;99.90;;;;;;5047619;28;20530;-79
2023/03/04 08:13:52;;;;;;;12.50;9.33;;;2.10;99.90;;;;;;5052928;28;20491;-79
2023/03/04 08:16:21;;;;;;;10.30;8.60;;;2.10;99.90;;;;;;5050212;28;20449;-79
2023/03/04 08:18:52;;;;;;;17.87;15.77;;;2.20;99.90;;;;;;5053456;28;20502;-79
2023/03/04 08:21:20;;;;;;;23.10;17.70;;;2.20;99.90;;;;;;5049935;28;20447;-78
2023/03/04 08:23:48;;;;;;;20.43;17.27;;;2.00;99.90;;;;;;5052785;28;20527;-79
2023/03/04 08:26:19;;;;;;;22.50;14.27;;;1.90;99.90;;;;;;5052691;28;20515;-78
2023/03/04 08:28:46;;;;;;;19.23;11.00;;;2.00;99.90;;;;;;5055091;28;20541;-79
2023/03/04 08:31:13;;;;;;;16.10;9.47;;;2.20;99.90;;;;;;5054214;28;20480;-79
2023/03/04 08:33:40;;;;;;;21.57;15.93;;;2.30;99.90;;;;;;5061335;28;20879;-79
2023/03/04 08:36:08;;;;;;;21.00;15.97;;;2.30;99.90;;;;;;5061884;28;20522;-79
2023/03/04 08:38:35;;;;;;;23.27;17.10;;;2.30;99.90;;;;;;5051724;28;20537;-79
2023/03/04 08:41:03;;;;;;;20.30;14.83;;;2.40;99.90;;;;;;5051463;28;20507;-79
2023/03/04 08:43:32;;;;;;;23.70;17.67;;;2.40;99.90;;;;;;5059966;28;20449;-79
2023/03/04 08:45:59;;;;;;;27.90;18.07;;;2.50;99.90;;;;;;5062566;28;20478;-79
2023/03/04 08:48:25;;;;;;;21.47;15.37;;;2.50;99.90;;;;;;5056582;28;21003;-79
2023/03/04 08:50:53;;;;;;;23.47;15.87;;;2.60;99.90;;;;;;5052544;28;20523;-79
2023/03/04 08:53:21;;;;;;;20.20;14.87;;;2.90;99.90;;;;;;5052514;28;20529;-79
2023/03/04 08:55:48;;;;;;;19.83;11.83;;;2.90;99.90;;;;;;5052698;28;20474;-79
2023/03/04 08:58:15;;;;;;;22.80;12.67;;;2.90;99.90;;;;;;5060180;28;20510;-79
2023/03/04 09:00:47;;;;;;;12.93;9.90;;;3.10;99.90;;;;;;5059983;28;20492;-80
2023/03/04 09:03:15;;;;;;;13.57;9.17;;;3.20;99.90;;;;;;5057407;28;20455;-80
2023/03/04 09:05:45;;;;;;;14.40;9.60;;;3.40;99.90;;;;;;5061520;28;20556;-80
2023/03/04 09:08:12;;;;;;;15.00;8.80;;;3.60;99.90;;;;;;5060857;28;20474;-80
2023/03/04 09:10:39;;;;;;;13.10;9.03;;;3.70;99.90;;;;;;5056846;28;20958;-79
2023/03/04 09:13:06;;;;;;;9.00;8.10;;;3.80;99.90;;;;;;5053039;28;20838;-78
2023/03/04 09:15:34;;;;;;;11.73;8.27;;;3.80;99.90;;;;;;5057669;28;20804;-80
2023/03/04 09:18:04;;;;;;;14.07;9.63;;;3.90;99.90;;;;;;5052955;28;20581;-80
2023/03/04 09:20:32;;;;;;;14.53;7.83;;;3.90;99.90;;;;;;5052481;28;20470;-80
2023/03/04 09:22:59;;;;;;;10.87;7.70;;;4.00;99.90;;;;;;5052600;28;20496;-80
2023/03/04 09:25:26;;;;;;;11.27;7.73;;;4.10;99.90;;;;;;5051947;28;20528;-79
2023/03/04 09:27:53;;;;;;;13.67;8.83;;;4.20;99.90;;;;;;5052466;28;20484;-79
2023/03/04 09:30:20;;;;;;;12.67;7.70;;;4.20;99.90;;;;;;5051474;28;20547;-79
2023/03/04 09:32:47;;;;;;;14.70;8.60;;;4.20;99.90;;;;;;5050759;28;20893;-79
2023/03/04 09:35:16;;;;;;;8.87;7.43;;;4.40;99.90;;;;;;5051998;28;20248;-80
2023/03/04 09:37:43;;;;;;;15.43;10.43;;;4.50;99.90;;;;;;5051953;28;20509;-80
2023/03/04 09:40:19;;;;;;;14.13;10.40;;;4.70;99.90;;;;;;5052197;28;20467;-80
2023/03/04 09:42:49;;;;;;;11.83;8.00;;;4.70;99.90;;;;;;5060926;28;20448;-83
2023/03/04 09:45:19;;;;;;;11.50;6.43;;;4.80;99.90;;;;;;5053726;28;20974;-81
2023/03/04 09:47:48;;;;;;;10.70;6.70;;;4.90;99.90;;;;;;5052682;28;20470;-80
2023/03/04 09:50:19;;;;;;;15.53;6.90;;;5.00;99.90;;;;;;5052149;28;20491;-80
2023/03/04 09:53:01;;;;;;;13.57;7.10;;;5.10;99.90;;;;;;5051709;28;20498;-81
2023/03/04 09:55:35;;;;;;;9.63;7.40;;;5.10;99.90;;;;;;5049925;28;20448;-81
2023/03/04 09:58:07;;;;;;;7.30;5.03;;;5.20;99.90;;;;;;5052631;28;20486;-81
2023/03/04 10:00:40;;;;;;;7.57;5.50;;;5.30;99.90;;;;;;5051944;28;20451;-81
2023/03/04 10:03:17;;;;;;;9.53;5.93;;;5.40;99.90;;;;;;5052709;28;20530;-81
2023/03/04 10:05:53;;;;;;;9.77;5.97;;;5.40;99.90;;;;;;5053079;28;20824;-81
2023/03/04 10:08:41;;;;;;;7.50;4.93;;;5.50;99.90;;;;;;5052330;28;20562;-80
2023/03/04 10:11:14;;;;;;;7.83;4.83;;;5.60;99.90;;;;;;5048855;28;20919;-81
2023/03/04 10:13:51;;;;;;;8.17;4.90;;;5.60;99.90;;;;;;5051891;28;20438;-80
2023/03/04 10:16:22;;;;;;;10.17;5.47;;;5.60;99.90;;;;;;5051117;28;20926;-81
2023/03/04 10:18:54;;;;;;;5.57;4.43;;;5.60;99.90;;;;;;5049879;28;20493;-81
2023/03/04 10:21:29;;;;;;;6.50;5.10;;;5.70;99.90;;;;;;5051018;28;20531;-80
2023/03/04 10:23:57;;;;;;;6.90;4.70;;;5.90;99.90;;;;;;5062948;22;20497;-49
2023/03/04 10:26:31;;;;;;;6.50;4.80;;;6.20;99.90;;;;;;5036919;28;20481;-51
2023/03/04 10:29:01;;;;;;;9.70;5.07;;;6.30;99.90;;;;;;5031797;28;20483;-50
2023/03/04 10:31:33;;;;;;;7.27;5.67;;;6.60;99.90;;;;;;5030534;28;20469;-51
2023/03/04 10:34:02;;;;;;;14.00;7.07;;;6.50;99.90;;;;;;5031971;28;20457;-52
2023/03/04 10:36:43;;;;;;;7.30;5.60;;;6.90;99.90;;;;;;5049494;23;20489;-50
2023/03/04 10:39:13;;;;;;;9.00;6.27;;;6.70;99.90;;;;;;5048346;28;20521;-49
2023/03/04 10:41:43;;;;;;;12.33;6.70;;;6.70;99.90;;;;;;5051049;28;20520;-53
2023/03/04 10:44:16;;;;;;;6.83;5.37;;;6.70;99.90;;;;;;5052093;28;20502;-51
2023/03/04 10:46:45;;;;;;;9.40;5.60;;;6.90;99.90;;;;;;5038635;28;20549;-50
2023/03/04 10:49:15;;;;;;;7.47;5.20;;;6.90;99.90;;;;;;5030277;28;20565;-49
2023/03/04 10:51:45;;;;;;;8.07;5.50;;;7.30;99.90;;;;;;5030437;28;20482;-50
2023/03/04 10:54:24;;;;;;;7.50;5.93;;;7.40;99.90;;;;;;5031361;28;20537;-50
2023/03/04 10:56:58;;;;;;;7.30;5.47;;;7.40;99.90;;;;;;5030909;28;20492;-51
2023/03/04 10:59:49;;;;;;;16.30;9.33;;;7.50;99.90;;;;;;5030730;28;20525;-52
2023/03/04 11:02:26;;;;;;;6.87;5.83;;;7.80;99.90;;;;;;5010853;28;20459;-50
2023/03/04 11:04:56;;;;;;;9.87;6.30;;;8.20;99.90;;;;;;5011655;28;20989;-50
2023/03/04 11:07:27;;;;;;;10.57;6.37;;;8.00;99.90;;;;;;5011538;28;20499;-51
2023/03/04 11:09:54;;;;;;;8.63;5.03;;;8.20;99.90;;;;;;5011277;28;20486;-48
2023/03/04 11:12:31;;;;;;;9.03;5.40;;;8.30;99.90;;;;;;5010439;28;20530;-48
2023/03/04 11:14:58;;;;;;;7.37;5.27;;;8.30;99.90;;;;;;5020986;28;20521;-49
2023/03/04 11:17:27;;;;;;;6.63;4.70;;;8.00;99.90;;;;;;5031219;28;20505;-48
2023/03/04 11:19:58;;;;;;;8.67;5.03;;;7.90;99.90;;;;;;5030105;28;21008;-50
2023/03/04 11:22:29;;;;;;;8.00;5.77;;;7.70;99.90;;;;;;5031479;28;20474;-48
2023/03/04 11:24:59;;;;;;;8.27;5.00;;;7.70;99.90;;;;;;5031287;28;20877;-48
2023/03/04 11:27:36;;;;;;;8.63;5.60;;;7.90;99.90;;;;;;5030902;28;20541;-48
2023/03/04 11:30:18;;;;;;;9.47;6.40;;;8.30;99.90;;;;;;5030775;28;20529;-48
2023/03/04 11:32:48;;;;;;;8.40;5.07;;;8.90;99.90;;;;;;5030364;28;20488;-48
2023/03/04 11:35:23;;;;;;;7.87;5.07;;;9.00;99.90;;;;;;5031176;28;20533;-48
2023/03/04 11:38:00;;;;;;;5.77;4.73;;;9.00;99.90;;;;;;5030836;28;20487;-47
2023/03/04 11:40:34;;;;;;;11.67;4.90;;;9.10;99.90;;;;;;5030951;28;20532;-50
2023/03/04 11:43:06;;;;;;;18.33;9.43;;;9.40;99.90;;;;;;5030079;28;20537;-51
2023/03/04 11:45:59;;;;;;;6.67;4.53;;;9.50;99.90;;;;;;5031320;28;20470;-48
2023/03/04 11:48:45;;;;;;;4.60;3.50;;;9.40;99.90;;;;;;5030200;28;20584;-48
2023/03/04 11:51:20;;;;;;;6.20;3.87;;;9.20;99.90;;;;;;5030552;28;20481;-48
2023/03/04 11:54:13;;;;;;;4.77;3.10;;;8.90;99.90;;;;;;5031367;28;20449;-48
2023/03/04 11:56:45;;;;;;;5.60;3.33;;;9.00;99.90;;;;;;5030765;28;20549;-47
2023/03/04 11:59:56;;;;;;;6.90;4.50;;;9.10;99.90;;;;;;5030030;28;20525;-48
2023/03/04 12:02:30;;;;;;;4.73;3.07;;;9.40;99.90;;;;;;5015225;28;20470;-48
2023/03/04 12:05:26;;;;;;;5.70;3.50;;;9.60;99.90;;;;;;5030086;28;20486;-48
2023/03/04 12:08:06;;;;;;;4.43;2.77;;;9.40;99.90;;;;;;5010792;28;20997;-48
2023/03/04 12:10:41;;;;;;;6.73;2.83;;;9.40;99.90;;;;;;5010052;28;20509;-51
2023/03/04 12:13:35;;;;;;;3.23;2.93;;;9.30;99.90;;;;;;5027038;28;20478;-48
2023/03/04 12:16:18;;;;;;;6.93;3.33;;;9.40;99.90;;;;;;5029189;28;20537;-47
2023/03/04 12:19:06;;;;;;;7.23;2.83;;;9.40;99.90;;;;;;5030546;28;20846;-51
2023/03/04 12:21:56;;;;;;;5.33;3.93;;;9.50;99.90;;;;;;5029259;28;20485;-51
2023/03/04 12:24:39;;;;;;;5.93;2.83;;;9.60;99.90;;;;;;5029134;28;20522;-47
2023/03/04 12:27:19;;;;;;;8.20;3.10;;;9.70;99.90;;;;;;5031269;28;20502;-48
2023/03/04 12:29:52;;;;;;;6.97;2.77;;;9.70;99.90;;;;;;5030579;28;20528;-48
2023/03/04 12:32:27;;;;;;;4.90;3.13;;;9.50;99.90;;;;;;5030666;28;20965;-48
2023/03/04 12:35:21;;;;;;;10.60;3.43;;;9.60;99.90;;;;;;5039407;28;20480;-48
2023/03/04 12:38:03;;;;;;;6.30;2.57;;;9.70;99.90;;;;;;5033585;28;20470;-48
2023/03/04 12:40:42;;;;;;;5.70;3.00;;;9.60;99.90;;;;;;5026929;28;20553;-49
2023/03/04 12:43:29;;;;;;;4.90;3.00;;;9.60;99.90;;;;;;5032993;28;20944;-48
2023/03/04 12:46:04;;;;;;;5.50;3.30;;;9.80;99.90;;;;;;5033697;28;20537;-50
2023/03/04 12:48:35;;;;;;;4.37;2.93;;;9.70;99.90;;;;;;5033731;28;20932;-48
2023/03/04 12:51:25;;;;;;;4.30;3.10;;;9.70;99.90;;;;;;5034180;28;20570;-48
2023/03/04 12:54:03;;;;;;;6.87;2.60;;;9.70;99.90;;;;;;5025395;28;20447;-48
2023/03/04 12:56:37;;;;;;;7.50;3.37;;;9.90;99.90;;;;;;5033531;28;20505;-48
2023/03/04 12:59:10;;;;;;;4.13;3.07;;;9.80;99.90;;;;;;5032193;28;21032;-49